Aviation Digital Data Service (ADDS)

Output produced by METARs form (2051 UTC 24 June 2018)
found at http://www.aviationweather.gov/adds/metars/
 
LATI 242050Z 12004KT CAVOK 19/15 Q1013 NOSIG
TAF LATI 241700Z 2418/2518 VRB03KT CAVOK 
     BECMG 2511/2513 FEW025CB BKN060 
     PROB40 
     TEMPO 2514/2518 VRB12KT TSRA
       
LATI 242050Z 12004KT CAVOK 19/15 Q1013 NOSIG
TAF LATI 241700Z 2418/2518 VRB03KT CAVOK 
     BECMG 2511/2513 FEW025CB BKN060 
     PROB40 
     TEMPO 2514/2518 VRB12KT TSRA